createdAt,value
2022-08-26T00:00:44.776Z,11.20
2022-08-26T00:03:03.312Z,10.82
2022-08-26T00:05:21.077Z,11.63
2022-08-26T00:07:38.942Z,11.18
2022-08-26T00:09:56.848Z,10.82
2022-08-26T00:12:15.711Z,11.60
2022-08-26T00:14:33.811Z,11.30
2022-08-26T00:16:52.043Z,11.13
2022-08-26T00:19:13.011Z,11.88
2022-08-26T00:21:31.067Z,10.85
2022-08-26T00:23:49.115Z,11.40
2022-08-26T00:26:08.338Z,11.48
2022-08-26T00:28:28.727Z,11.60
2022-08-26T00:30:52.085Z,11.35
2022-08-26T00:33:10.358Z,11.35
2022-08-26T00:35:29.446Z,11.13
2022-08-26T00:40:10.998Z,10.77
2022-08-26T00:42:29.232Z,11.50
2022-08-26T00:44:47.484Z,11.23
2022-08-26T00:47:10.313Z,11.38
2022-08-26T00:49:43.033Z,11.45
2022-08-26T00:52:02.049Z,11.30
2022-08-26T00:54:21.343Z,10.63
2022-08-26T00:56:44.007Z,11.07
2022-08-26T00:59:09.637Z,10.90
2022-08-26T01:01:28.423Z,10.75
2022-08-26T01:03:49.323Z,11.40
2022-08-26T01:06:12.525Z,10.95
2022-08-26T01:08:31.395Z,10.35
2022-08-26T01:10:50.627Z,10.55
2022-08-26T01:13:10.555Z,10.95
2022-08-26T01:15:36.029Z,11.73
2022-08-26T01:17:54.262Z,10.85
2022-08-26T01:20:19.828Z,11.23
2022-08-26T01:22:43.421Z,10.93
2022-08-26T01:25:03.402Z,11.57
2022-08-26T01:27:22.063Z,11.43
2022-08-26T01:29:43.157Z,11.20
2022-08-26T01:32:00.971Z,11.05
2022-08-26T01:34:21.369Z,11.05
2022-08-26T01:36:39.875Z,11.25
2022-08-26T01:38:58.125Z,10.93
2022-08-26T01:41:19.885Z,10.90
2022-08-26T01:43:46.060Z,11.30
2022-08-26T01:46:03.959Z,10.65
2022-08-26T01:48:24.323Z,11.10
2022-08-26T01:50:42.992Z,10.77
2022-08-26T01:53:04.034Z,10.73
2022-08-26T01:55:32.198Z,11.25
2022-08-26T01:57:52.837Z,10.32
2022-08-26T02:00:14.860Z,10.65
2022-08-26T02:02:34.032Z,10.25
2022-08-26T02:04:54.851Z,11.00
2022-08-26T02:07:12.956Z,11.50
2022-08-26T02:09:30.932Z,11.43
2022-08-26T02:11:48.866Z,11.02
2022-08-26T02:14:29.205Z,11.23
2022-08-26T02:16:50.283Z,11.48
2022-08-26T02:19:17.026Z,11.05
2022-08-26T02:21:35.448Z,10.85
2022-08-26T02:23:56.051Z,11.50
2022-08-26T02:26:19.231Z,11.02
2022-08-26T02:28:40.165Z,12.02
2022-08-26T02:30:57.992Z,10.77
2022-08-26T02:33:16.990Z,11.48
2022-08-26T02:35:35.599Z,11.18
2022-08-26T02:37:53.696Z,10.63
2022-08-26T02:40:13.568Z,11.70
2022-08-26T02:42:32.460Z,11.02
2022-08-26T02:44:51.072Z,11.93
2022-08-26T02:47:08.942Z,11.27
2022-08-26T02:49:27.672Z,11.23
2022-08-26T02:51:46.749Z,12.02
2022-08-26T02:54:05.020Z,11.15
2022-08-26T02:56:23.003Z,11.18
2022-08-26T02:58:40.888Z,11.48
2022-08-26T03:00:59.740Z,11.43
2022-08-26T03:03:19.470Z,10.93
2022-08-26T03:05:40.674Z,11.82
2022-08-26T03:08:00.793Z,12.75
2022-08-26T03:10:19.366Z,11.65
2022-08-26T03:12:38.009Z,11.48
2022-08-26T03:14:56.582Z,12.30
2022-08-26T03:17:14.452Z,12.25
2022-08-26T03:19:32.364Z,11.50
2022-08-26T03:21:57.828Z,11.63
2022-08-26T03:24:16.956Z,11.20
2022-08-26T03:26:34.752Z,11.38
2022-08-26T03:29:13.131Z,11.15
2022-08-26T03:31:31.341Z,11.32
2022-08-26T03:33:49.190Z,10.65
2022-08-26T03:36:09.681Z,11.57
2022-08-26T03:38:28.540Z,11.80
2022-08-26T03:40:46.507Z,11.02
2022-08-26T03:43:06.008Z,12.13
2022-08-26T03:45:27.985Z,11.38
2022-08-26T03:47:47.233Z,11.13
2022-08-26T03:50:05.704Z,11.02
2022-08-26T03:52:24.459Z,10.48
2022-08-26T03:54:42.552Z,10.48
2022-08-26T03:57:01.336Z,11.25
2022-08-26T03:59:19.113Z,11.10
2022-08-26T04:01:37.308Z,11.20
2022-08-26T04:04:00.095Z,11.50
2022-08-26T04:08:36.245Z,11.30
2022-08-26T04:10:54.006Z,11.40
2022-08-26T04:13:12.314Z,11.00
2022-08-26T04:15:30.170Z,12.13
2022-08-26T04:17:48.030Z,11.90
2022-08-26T04:20:07.761Z,11.68
2022-08-26T04:22:27.107Z,11.82
2022-08-26T04:24:47.171Z,12.00
2022-08-26T04:27:04.982Z,11.18
2022-08-26T04:29:27.362Z,11.43
2022-08-26T04:31:45.143Z,12.68
2022-08-26T04:34:03.498Z,11.73
2022-08-26T04:36:21.557Z,11.93
2022-08-26T04:38:39.532Z,10.90
2022-08-26T04:40:57.749Z,12.35
2022-08-26T04:43:15.583Z,11.43
2022-08-26T04:45:36.135Z,11.25
2022-08-26T04:47:56.333Z,11.80
2022-08-26T04:50:15.326Z,11.57
2022-08-26T04:52:42.278Z,11.60
2022-08-26T04:55:00.138Z,11.20
2022-08-26T04:57:17.920Z,11.38
2022-08-26T04:59:39.056Z,11.98
2022-08-26T05:01:59.479Z,11.68
2022-08-26T05:04:18.989Z,11.77
2022-08-26T05:06:38.592Z,11.90
2022-08-26T05:08:56.386Z,11.95
2022-08-26T05:11:14.195Z,12.38
2022-08-26T05:13:32.492Z,12.02
2022-08-26T05:15:52.377Z,12.77
2022-08-26T05:18:10.689Z,13.05
2022-08-26T05:20:30.011Z,13.13
2022-08-26T05:22:47.881Z,12.82
2022-08-26T05:25:06.261Z,12.30
2022-08-26T05:27:24.020Z,12.00
2022-08-26T05:29:42.554Z,12.90
2022-08-26T05:32:02.182Z,12.32
2022-08-26T05:34:21.178Z,12.32
2022-08-26T05:36:40.270Z,12.63
2022-08-26T05:38:58.372Z,11.85
2022-08-26T05:41:18.974Z,12.82
2022-08-26T05:43:37.195Z,13.60
2022-08-26T05:45:58.157Z,12.63
2022-08-26T05:48:18.146Z,13.25
2022-08-26T05:50:41.632Z,13.00
2022-08-26T05:53:01.513Z,12.80
2022-08-26T05:55:26.649Z,13.88
2022-08-26T05:57:45.430Z,13.65
2022-08-26T06:00:03.864Z,13.18
2022-08-26T06:02:31.584Z,14.40
2022-08-26T06:04:50.024Z,13.90
2022-08-26T06:07:11.544Z,13.55
2022-08-26T06:09:34.971Z,13.68
2022-08-26T06:11:58.703Z,14.73
2022-08-26T06:14:17.889Z,14.10
2022-08-26T06:16:38.724Z,13.15
2022-08-26T06:21:22.730Z,13.68
2022-08-26T06:23:59.703Z,13.30
2022-08-26T06:26:18.577Z,13.90
2022-08-26T06:28:36.364Z,13.27
2022-08-26T06:30:55.802Z,13.10
2022-08-26T06:33:13.959Z,14.05
2022-08-26T06:35:31.756Z,13.20
2022-08-26T06:37:49.592Z,13.05
2022-08-26T06:40:07.769Z,13.30
2022-08-26T06:42:25.582Z,12.85
2022-08-26T06:44:44.763Z,13.52
2022-08-26T06:47:02.711Z,12.90
2022-08-26T06:49:25.855Z,12.82
2022-08-26T06:51:45.845Z,13.35
2022-08-26T06:54:07.650Z,12.82
2022-08-26T06:56:26.545Z,13.00
2022-08-26T06:58:44.516Z,13.55
2022-08-26T07:01:11.429Z,13.23
2022-08-26T07:03:29.706Z,14.30
2022-08-26T07:05:53.525Z,14.00
2022-08-26T07:08:11.440Z,13.02
2022-08-26T07:10:29.203Z,12.60
2022-08-26T07:12:49.136Z,12.45
2022-08-26T07:15:07.087Z,12.38
2022-08-26T07:17:25.845Z,12.18
2022-08-26T07:19:43.762Z,12.60
2022-08-26T07:22:02.437Z,12.40
2022-08-26T07:24:21.586Z,12.73
2022-08-26T07:26:42.829Z,12.00
2022-08-26T07:29:01.854Z,12.68
2022-08-26T07:31:21.294Z,13.27
2022-08-26T07:33:39.260Z,11.98
2022-08-26T07:35:58.715Z,12.93
2022-08-26T07:38:18.038Z,12.23
2022-08-26T07:40:35.983Z,11.88
2022-08-26T07:42:54.312Z,11.85
2022-08-26T07:45:12.536Z,11.80
2022-08-26T07:47:30.349Z,11.85
2022-08-26T07:49:48.339Z,12.20
2022-08-26T07:52:10.561Z,12.10
2022-08-26T07:54:28.818Z,11.85
2022-08-26T07:56:47.531Z,12.02
2022-08-26T07:59:13.584Z,11.43
2022-08-26T08:01:33.103Z,11.40
2022-08-26T08:03:51.826Z,11.75
2022-08-26T08:06:09.948Z,11.90
2022-08-26T08:08:29.306Z,11.10
2022-08-26T08:10:48.839Z,11.43
2022-08-26T08:13:07.695Z,11.60
2022-08-26T08:15:29.933Z,11.13
2022-08-26T08:17:47.832Z,10.48
2022-08-26T08:20:09.209Z,10.50
2022-08-26T08:22:27.011Z,10.73
2022-08-26T08:24:45.178Z,11.07
2022-08-26T08:27:03.693Z,10.50
2022-08-26T08:29:21.521Z,10.35
2022-08-26T08:31:55.832Z,10.35
2022-08-26T08:34:15.122Z,10.95
2022-08-26T08:36:35.958Z,10.57
2022-08-26T08:38:54.055Z,11.15
2022-08-26T08:41:35.881Z,10.80
2022-08-26T08:43:53.787Z,11.23
2022-08-26T08:46:13.234Z,10.45
2022-08-26T08:48:33.502Z,9.85
2022-08-26T08:50:53.971Z,10.13
2022-08-26T08:53:12.043Z,9.80
2022-08-26T08:55:36.273Z,9.75
2022-08-26T08:58:02.522Z,10.32
2022-08-26T09:00:30.329Z,10.55
2022-08-26T09:02:51.573Z,9.60
2022-08-26T09:05:42.602Z,11.00
2022-08-26T09:08:06.580Z,10.43
2022-08-26T09:10:39.108Z,9.57
2022-08-26T09:12:57.570Z,10.15
2022-08-26T09:15:21.256Z,9.80
2022-08-26T09:17:39.173Z,10.93
2022-08-26T09:20:20.646Z,9.93
2022-08-26T09:22:39.560Z,9.10
2022-08-26T09:25:02.465Z,9.45
2022-08-26T09:27:37.908Z,9.38
2022-08-26T09:29:59.948Z,9.52
2022-08-26T09:34:38.419Z,8.63
2022-08-26T09:36:57.984Z,9.20
2022-08-26T09:39:27.796Z,9.68
2022-08-26T09:41:45.692Z,9.00
2022-08-26T09:44:20.752Z,9.93
2022-08-26T09:46:47.862Z,9.73
2022-08-26T09:49:23.576Z,9.57
2022-08-26T09:51:42.614Z,9.82
2022-08-26T09:54:01.893Z,9.40
2022-08-26T09:56:27.816Z,9.80
2022-08-26T09:58:47.305Z,10.38
2022-08-26T10:01:07.901Z,9.30
2022-08-26T10:03:28.432Z,9.63
2022-08-26T10:05:57.292Z,8.90
2022-08-26T10:08:21.561Z,9.15
2022-08-26T10:10:41.757Z,9.57
2022-08-26T10:13:09.016Z,9.10
2022-08-26T10:15:28.305Z,8.80
2022-08-26T10:17:56.337Z,9.05
2022-08-26T10:20:23.090Z,8.88
2022-08-26T10:22:45.783Z,8.73
2022-08-26T10:25:06.350Z,7.90
2022-08-26T10:27:51.101Z,8.38
2022-08-26T10:30:12.965Z,9.02
2022-08-26T10:32:35.314Z,8.98
2022-08-26T10:34:59.357Z,7.40
2022-08-26T10:37:20.469Z,7.72
2022-08-26T10:39:46.176Z,7.93
2022-08-26T10:42:27.195Z,6.93
2022-08-26T10:44:48.263Z,7.50
2022-08-26T10:47:29.383Z,7.40
2022-08-26T10:49:50.004Z,8.07
2022-08-26T10:52:19.316Z,7.05
2022-08-26T10:54:44.158Z,6.88
2022-08-26T10:57:18.066Z,6.80
2022-08-26T10:59:41.676Z,6.25
2022-08-26T11:02:32.073Z,7.32
2022-08-26T11:05:10.796Z,6.50
2022-08-26T11:07:46.249Z,7.00
2022-08-26T11:10:33.001Z,6.53
2022-08-26T11:13:03.911Z,6.22
2022-08-26T11:15:24.516Z,6.10
2022-08-26T11:17:45.966Z,5.70
2022-08-26T11:20:09.267Z,6.55
2022-08-26T11:22:33.408Z,5.80
2022-08-26T11:24:54.187Z,7.25
2022-08-26T11:27:24.904Z,6.93
2022-08-26T11:30:01.062Z,6.82
2022-08-26T11:32:26.581Z,6.28
2022-08-26T11:34:59.304Z,6.22
2022-08-26T11:39:54.446Z,6.47
2022-08-26T11:42:32.521Z,6.00
2022-08-26T11:44:50.791Z,5.55
2022-08-26T11:47:11.486Z,6.43
2022-08-26T11:49:31.465Z,7.05
2022-08-26T11:51:51.359Z,6.63
2022-08-26T11:54:17.770Z,6.65
2022-08-26T11:56:53.390Z,6.70
2022-08-26T11:59:12.445Z,6.28
2022-08-26T12:01:41.114Z,6.10
2022-08-26T12:04:00.449Z,6.10
2022-08-26T12:08:50.476Z,6.60
2022-08-26T12:11:10.259Z,5.70
2022-08-26T12:13:28.053Z,5.95
2022-08-26T12:15:52.574Z,6.22
2022-08-26T12:18:20.544Z,6.80
2022-08-26T12:20:48.338Z,6.30
2022-08-26T12:23:06.303Z,5.80
2022-08-26T12:25:25.084Z,6.15
2022-08-26T12:27:44.087Z,5.93
2022-08-26T12:30:03.102Z,5.70
2022-08-26T12:32:25.002Z,5.97
2022-08-26T12:34:43.420Z,5.95
2022-08-26T12:37:01.408Z,5.30
2022-08-26T12:39:28.363Z,5.90
2022-08-26T12:41:50.619Z,6.45
2022-08-26T12:44:08.779Z,5.53
2022-08-26T12:46:28.338Z,5.95
2022-08-26T12:48:48.912Z,5.53
2022-08-26T12:51:08.366Z,5.22
2022-08-26T12:53:33.512Z,5.50
2022-08-26T12:55:56.207Z,5.68
2022-08-26T12:58:20.241Z,5.55
2022-08-26T13:00:40.289Z,5.57
2022-08-26T13:02:58.923Z,5.60
2022-08-26T13:05:21.124Z,5.07
2022-08-26T13:07:38.982Z,6.85
2022-08-26T13:09:58.031Z,5.18
2022-08-26T13:12:33.094Z,5.25
2022-08-26T13:14:51.057Z,4.85
2022-08-26T13:17:09.165Z,5.72
2022-08-26T13:19:26.974Z,5.38
2022-08-26T13:21:48.007Z,5.28
2022-08-26T13:24:08.138Z,5.80
2022-08-26T13:26:25.973Z,5.88
2022-08-26T13:28:43.836Z,5.18
2022-08-26T13:31:01.707Z,5.85
2022-08-26T13:33:21.418Z,5.47
2022-08-26T13:35:39.326Z,5.70
2022-08-26T13:37:57.478Z,5.53
2022-08-26T13:40:15.340Z,6.72
2022-08-26T13:42:33.289Z,5.10
2022-08-26T13:44:58.555Z,5.25
2022-08-26T13:47:16.438Z,5.15
2022-08-26T13:49:34.271Z,4.95
2022-08-26T13:51:52.108Z,5.55
2022-08-26T13:54:09.894Z,5.45
2022-08-26T13:56:29.711Z,5.80
2022-08-26T13:58:48.113Z,5.43
2022-08-26T14:01:07.442Z,5.28
2022-08-26T14:03:25.643Z,5.40
2022-08-26T14:05:43.486Z,4.70
2022-08-26T14:08:01.412Z,5.15
2022-08-26T14:10:19.467Z,5.32
2022-08-26T14:12:39.912Z,5.50
2022-08-26T14:14:57.712Z,5.40
2022-08-26T14:17:20.287Z,6.15
2022-08-26T14:21:56.111Z,5.30
2022-08-26T14:24:13.987Z,5.57
2022-08-26T14:26:31.776Z,6.25
2022-08-26T14:28:50.112Z,5.20
2022-08-26T14:31:08.036Z,6.43
2022-08-26T14:33:27.891Z,5.15
2022-08-26T14:35:48.972Z,5.22
2022-08-26T14:38:07.623Z,5.00
2022-08-26T14:40:28.237Z,5.18
2022-08-26T14:42:53.822Z,5.13
2022-08-26T14:45:15.829Z,5.97
2022-08-26T14:47:33.616Z,5.80
2022-08-26T14:49:51.890Z,5.68
2022-08-26T14:52:09.599Z,6.00
2022-08-26T14:54:28.893Z,5.85
2022-08-26T14:56:58.581Z,6.45
2022-08-26T14:59:18.185Z,5.55
2022-08-26T15:01:36.791Z,5.68
2022-08-26T15:03:54.670Z,5.55
2022-08-26T15:06:13.738Z,5.35
2022-08-26T15:08:36.476Z,5.88
2022-08-26T15:10:54.367Z,5.40
2022-08-26T15:13:12.273Z,5.88
2022-08-26T15:15:30.475Z,5.80
2022-08-26T15:17:48.317Z,5.18
2022-08-26T15:20:09.289Z,5.70
2022-08-26T15:22:29.770Z,5.78
2022-08-26T15:24:47.633Z,5.20
2022-08-26T15:27:09.643Z,6.22
2022-08-26T15:29:27.626Z,5.65
2022-08-26T15:31:45.620Z,5.38
2022-08-26T15:34:08.999Z,5.55
2022-08-26T15:36:29.578Z,5.78
2022-08-26T15:38:47.343Z,6.38
2022-08-26T15:41:06.691Z,6.00
2022-08-26T15:43:29.000Z,5.65
2022-08-26T15:48:05.143Z,5.35
2022-08-26T15:50:25.259Z,5.70
2022-08-26T15:52:43.041Z,5.30
2022-08-26T15:55:01.635Z,6.80
2022-08-26T15:57:19.740Z,5.82
2022-08-26T15:59:38.210Z,5.20
2022-08-26T16:01:55.965Z,5.65
2022-08-26T16:04:14.206Z,6.07
2022-08-26T16:06:33.320Z,5.43
2022-08-26T16:08:51.774Z,5.50
2022-08-26T16:11:09.634Z,5.78
2022-08-26T16:13:27.512Z,5.97
2022-08-26T16:15:59.508Z,5.55
2022-08-26T16:18:17.464Z,5.90
2022-08-26T16:20:36.569Z,5.50
2022-08-26T16:22:54.452Z,5.55
2022-08-26T16:25:12.447Z,5.35
2022-08-26T16:27:30.234Z,5.43
2022-08-26T16:29:47.993Z,5.90
2022-08-26T16:32:08.925Z,5.72
2022-08-26T16:34:26.965Z,5.63
2022-08-26T16:36:45.010Z,5.28
2022-08-26T16:39:03.559Z,5.18
2022-08-26T16:41:21.308Z,5.68
2022-08-26T16:43:39.122Z,5.60
2022-08-26T16:45:57.051Z,5.78
2022-08-26T16:48:14.883Z,5.85
2022-08-26T16:50:33.340Z,6.13
2022-08-26T16:52:55.577Z,5.82
2022-08-26T16:55:15.755Z,5.38
2022-08-26T16:57:33.946Z,6.10
2022-08-26T16:59:51.828Z,6.18
2022-08-26T17:02:11.941Z,5.90
2022-08-26T17:04:30.077Z,6.28
2022-08-26T17:06:47.937Z,6.53
2022-08-26T17:09:05.895Z,6.00
2022-08-26T17:11:23.676Z,5.60
2022-08-26T17:13:41.408Z,6.43
2022-08-26T17:16:00.017Z,5.93
2022-08-26T17:18:17.927Z,6.13
2022-08-26T17:20:35.744Z,5.88
2022-08-26T17:22:54.964Z,5.47
2022-08-26T17:25:14.189Z,6.00
2022-08-26T17:27:32.076Z,5.30
2022-08-26T17:29:49.832Z,5.60
2022-08-26T17:32:07.750Z,5.43
2022-08-26T17:34:25.966Z,5.70
2022-08-26T17:36:43.741Z,5.60
2022-08-26T17:39:01.703Z,5.57
2022-08-26T17:41:19.507Z,5.72
2022-08-26T17:43:38.541Z,6.20
2022-08-26T17:46:04.686Z,6.30
2022-08-26T17:48:25.121Z,6.10
2022-08-26T17:50:49.530Z,6.80
2022-08-26T17:53:08.037Z,6.85
2022-08-26T17:55:31.417Z,6.60
2022-08-26T17:57:53.573Z,6.30
2022-08-26T18:00:19.801Z,6.00
2022-08-26T18:02:38.785Z,6.25
2022-08-26T18:04:58.029Z,6.70
2022-08-26T18:07:16.183Z,6.28
2022-08-26T18:09:34.303Z,6.93
2022-08-26T18:11:52.191Z,6.47
2022-08-26T18:14:10.109Z,6.80
2022-08-26T18:16:28.520Z,6.40
2022-08-26T18:18:47.089Z,6.47
2022-08-26T18:21:05.323Z,6.88
2022-08-26T18:23:23.706Z,6.55
2022-08-26T18:25:44.863Z,6.30
2022-08-26T18:28:05.962Z,5.72
2022-08-26T18:30:24.201Z,5.93
2022-08-26T18:32:42.373Z,6.53
2022-08-26T18:35:00.162Z,6.15
2022-08-26T18:37:17.909Z,6.70
2022-08-26T18:39:35.777Z,6.03
2022-08-26T18:41:53.592Z,6.85
2022-08-26T18:44:13.618Z,6.32
2022-08-26T18:46:31.761Z,6.35
2022-08-26T18:48:50.930Z,7.00
2022-08-26T18:51:12.462Z,6.85
2022-08-26T18:53:31.619Z,7.03
2022-08-26T18:55:49.756Z,7.15
2022-08-26T18:58:07.666Z,6.93
2022-08-26T19:00:25.452Z,6.53
2022-08-26T19:02:43.308Z,6.70
2022-08-26T19:05:12.434Z,6.85
2022-08-26T19:07:39.628Z,6.90
2022-08-26T19:09:57.543Z,6.40
2022-08-26T19:12:15.452Z,6.78
2022-08-26T19:14:35.828Z,6.82
2022-08-26T19:16:54.215Z,6.28
2022-08-26T19:19:13.385Z,6.60
2022-08-26T19:21:33.164Z,6.50
2022-08-26T19:23:51.207Z,7.22
2022-08-26T19:26:10.208Z,7.20
2022-08-26T19:28:28.303Z,6.88
2022-08-26T19:30:50.150Z,6.97
2022-08-26T19:33:12.044Z,6.70
2022-08-26T19:35:29.829Z,6.78
2022-08-26T19:37:48.900Z,7.13
2022-08-26T19:40:07.811Z,7.10
2022-08-26T19:42:25.586Z,7.03
2022-08-26T19:45:02.021Z,7.15
2022-08-26T19:47:19.834Z,7.00
2022-08-26T19:49:38.394Z,6.80
2022-08-26T19:51:56.474Z,6.78
2022-08-26T19:54:14.269Z,7.47
2022-08-26T19:56:32.382Z,6.93
2022-08-26T19:58:50.836Z,7.75
2022-08-26T20:01:09.112Z,6.93
2022-08-26T20:03:27.403Z,6.85
2022-08-26T20:05:45.258Z,7.47
2022-08-26T20:08:03.122Z,7.15
2022-08-26T20:10:22.771Z,7.30
2022-08-26T20:12:42.468Z,7.13
2022-08-26T20:15:01.617Z,6.95
2022-08-26T20:17:19.352Z,7.07
2022-08-26T20:19:56.224Z,6.35
2022-08-26T20:22:14.644Z,6.85
2022-08-26T20:24:32.722Z,6.97
2022-08-26T20:26:50.563Z,7.13
2022-08-26T20:29:09.348Z,7.53
2022-08-26T20:31:27.591Z,7.38
2022-08-26T20:33:46.285Z,7.22
2022-08-26T20:36:05.594Z,7.38
2022-08-26T20:38:25.114Z,7.03
2022-08-26T20:40:43.666Z,7.53
2022-08-26T20:43:01.793Z,7.40
2022-08-26T20:45:19.638Z,7.75
2022-08-26T20:47:37.457Z,6.65
2022-08-26T20:49:55.209Z,7.57
2022-08-26T20:52:13.721Z,7.00
2022-08-26T20:54:32.254Z,7.70
2022-08-26T20:56:50.231Z,7.03
2022-08-26T20:59:08.695Z,7.50
2022-08-26T21:01:30.682Z,7.35
2022-08-26T21:03:51.225Z,7.60
2022-08-26T21:06:09.184Z,7.63
2022-08-26T21:08:27.163Z,7.85
2022-08-26T21:10:45.569Z,7.60
2022-08-26T21:13:03.990Z,7.47
2022-08-26T21:15:22.479Z,7.53
2022-08-26T21:17:40.286Z,7.72
2022-08-26T21:19:58.143Z,7.45
2022-08-26T21:22:16.498Z,8.07
2022-08-26T21:24:34.825Z,7.40
2022-08-26T21:26:54.842Z,8.02
2022-08-26T21:29:13.761Z,7.10
2022-08-26T21:31:34.435Z,7.60
2022-08-26T21:33:53.121Z,7.47
2022-08-26T21:36:11.608Z,8.10
2022-08-26T21:38:31.230Z,8.15
2022-08-26T21:41:02.396Z,8.15
2022-08-26T21:43:26.005Z,7.65
2022-08-26T21:48:10.981Z,7.40
2022-08-26T21:50:29.656Z,7.35
2022-08-26T21:52:47.711Z,8.30
2022-08-26T21:55:08.931Z,8.27
2022-08-26T21:57:27.477Z,8.52
2022-08-26T21:59:45.411Z,7.43
2022-08-26T22:02:05.605Z,7.95
2022-08-26T22:04:23.694Z,7.90
2022-08-26T22:06:43.483Z,8.25
2022-08-26T22:09:01.455Z,7.88
2022-08-26T22:11:19.827Z,8.02
2022-08-26T22:13:38.790Z,8.27
2022-08-26T22:15:57.727Z,7.15
2022-08-26T22:18:16.126Z,8.10
2022-08-26T22:20:33.912Z,7.57
2022-08-26T22:22:51.678Z,8.45
2022-08-26T22:25:09.798Z,7.63
2022-08-26T22:27:27.724Z,9.18
2022-08-26T22:29:47.972Z,7.68
2022-08-26T22:32:06.086Z,7.97
2022-08-26T22:34:23.968Z,7.70
2022-08-26T22:36:43.985Z,7.30
2022-08-26T22:39:02.348Z,8.25
2022-08-26T22:41:20.726Z,8.45
2022-08-26T22:43:38.730Z,8.38
2022-08-26T22:45:56.894Z,8.18
2022-08-26T22:48:16.177Z,8.18
2022-08-26T22:50:34.132Z,8.07
2022-08-26T22:52:52.097Z,8.02
2022-08-26T22:55:10.752Z,8.27
2022-08-26T22:57:28.496Z,8.60
2022-08-26T22:59:46.621Z,7.88
2022-08-26T23:02:04.574Z,7.65
2022-08-26T23:04:26.416Z,8.50
2022-08-26T23:06:47.793Z,7.97
2022-08-26T23:09:07.173Z,8.48
2022-08-26T23:11:25.107Z,9.30
2022-08-26T23:13:43.144Z,7.45
2022-08-26T23:16:02.413Z,7.88
2022-08-26T23:18:20.197Z,7.72
2022-08-26T23:20:38.810Z,8.38
2022-08-26T23:22:57.214Z,7.68
2022-08-26T23:25:15.156Z,8.68
2022-08-26T23:27:32.961Z,7.75
2022-08-26T23:29:51.102Z,8.13
2022-08-26T23:32:09.013Z,8.43
2022-08-26T23:34:45.772Z,8.00
2022-08-26T23:37:06.745Z,8.60
2022-08-26T23:39:25.599Z,7.80
2022-08-26T23:41:43.515Z,7.97
2022-08-26T23:44:03.568Z,8.25
2022-08-26T23:46:22.435Z,8.70
2022-08-26T23:48:40.221Z,7.95
2022-08-26T23:51:16.567Z,8.57
2022-08-26T23:53:34.363Z,8.55
2022-08-26T23:55:53.194Z,8.05
2022-08-26T23:58:11.263Z,7.97
